createdAt,value
2023-04-25T00:00:24.462Z,100004.31
2023-04-25T00:02:52.572Z,99980.59
2023-04-25T00:05:20.933Z,100001.66
2023-04-25T00:07:49.064Z,99999.00
2023-04-25T00:10:17.368Z,100002.25
2023-04-25T00:12:46.641Z,100000.44
2023-04-25T00:15:14.528Z,99996.88
2023-04-25T00:17:42.693Z,99968.69
2023-04-25T00:20:11.976Z,99982.84
2023-04-25T00:22:39.837Z,99983.56
2023-04-25T00:25:08.679Z,99980.91
2023-04-25T00:27:36.565Z,99984.31
2023-04-25T00:30:06.866Z,99980.78
2023-04-25T00:32:34.977Z,99976.47
2023-04-25T00:35:04.207Z,99974.72
2023-04-25T00:37:32.125Z,99817.28
2023-04-25T00:40:00.805Z,99975.47
2023-04-25T00:42:29.188Z,99965.84
2023-04-25T00:44:57.668Z,99922.50
2023-04-25T00:47:27.848Z,99968.47
2023-04-25T00:49:55.709Z,99965.84
2023-04-25T00:52:23.789Z,99940.78
2023-04-25T00:54:51.885Z,99969.16
2023-04-25T00:57:19.856Z,99976.13
2023-04-25T00:59:48.373Z,99976.13
2023-04-25T01:02:16.566Z,99978.72
2023-04-25T01:04:46.688Z,99972.53
2023-04-25T01:07:14.541Z,99967.28
2023-04-25T01:09:43.355Z,99821.50
2023-04-25T01:12:11.343Z,99946.50
2023-04-25T01:14:39.254Z,99947.41
2023-04-25T01:17:08.937Z,99938.72
2023-04-25T01:19:37.191Z,99938.78
2023-04-25T01:22:07.172Z,99936.06
2023-04-25T01:24:35.449Z,99932.53
2023-04-25T01:27:04.546Z,99858.38
2023-04-25T01:29:35.150Z,99835.56
2023-04-25T01:32:04.430Z,99898.03
2023-04-25T01:34:33.894Z,99898.34
2023-04-25T01:37:02.766Z,99900.88
2023-04-25T01:39:32.169Z,99897.22
2023-04-25T01:42:01.518Z,99899.69
2023-04-25T01:44:29.908Z,99864.69
2023-04-25T01:46:57.892Z,99892.84
2023-04-25T01:49:25.953Z,99885.84
2023-04-25T01:51:53.944Z,99861.03
2023-04-25T01:54:22.129Z,99890.03
2023-04-25T01:56:53.904Z,99888.72
2023-04-25T01:59:22.873Z,99921.06
2023-04-25T02:01:50.997Z,99940.00
2023-04-25T02:04:19.288Z,99934.75
2023-04-25T02:06:47.465Z,99906.91
2023-04-25T02:09:15.471Z,99877.53
2023-04-25T02:11:43.365Z,99886.06
2023-04-25T02:14:12.549Z,99892.84
2023-04-25T02:16:40.876Z,99822.22
2023-04-25T02:19:09.086Z,99885.06
2023-04-25T02:21:37.654Z,99872.09
2023-04-25T02:24:06.332Z,99863.31
2023-04-25T02:26:34.225Z,99876.44
2023-04-25T02:29:02.262Z,99863.50
2023-04-25T02:31:31.638Z,99867.84
2023-04-25T02:33:59.667Z,99859.13
2023-04-25T02:36:27.718Z,99851.34
2023-04-25T02:38:55.615Z,99843.56
2023-04-25T02:41:23.440Z,99836.50
2023-04-25T02:43:51.615Z,99845.94
2023-04-25T02:46:32.066Z,99836.56
2023-04-25T02:49:07.803Z,99831.56
2023-04-25T02:51:35.853Z,99800.81
2023-04-25T02:54:03.673Z,99823.78
2023-04-25T02:56:31.656Z,99816.00
2023-04-25T02:58:59.565Z,99818.53
2023-04-25T03:01:27.627Z,99796.38
2023-04-25T03:03:55.866Z,99811.28
2023-04-25T03:06:25.246Z,99810.34
2023-04-25T03:08:53.070Z,99799.03
2023-04-25T03:11:21.983Z,99777.41
2023-04-25T03:13:50.179Z,99789.50
2023-04-25T03:16:18.160Z,99634.97
2023-04-25T03:18:47.337Z,99783.44
2023-04-25T03:21:15.392Z,99777.41
2023-04-25T03:23:44.829Z,99782.78
2023-04-25T03:26:12.979Z,99781.00
2023-04-25T03:28:41.225Z,99785.25
2023-04-25T03:31:09.201Z,99790.25
2023-04-25T03:33:47.908Z,99784.13
2023-04-25T03:36:15.853Z,99790.97
2023-04-25T03:38:45.288Z,99737.31
2023-04-25T03:41:13.345Z,99780.72
2023-04-25T03:43:41.176Z,99774.66
2023-04-25T03:46:09.263Z,99774.72
2023-04-25T03:48:37.464Z,99773.13
2023-04-25T03:51:05.694Z,99696.44
2023-04-25T03:53:33.619Z,99681.38
2023-04-25T03:56:04.212Z,99764.63
2023-04-25T03:58:32.054Z,99762.03
2023-04-25T04:00:59.989Z,99751.78
2023-04-25T04:03:28.070Z,99740.72
2023-04-25T04:05:56.198Z,99717.88
2023-04-25T04:08:24.142Z,99735.66
2023-04-25T04:10:52.088Z,99701.72
2023-04-25T04:13:21.439Z,99699.13
2023-04-25T04:15:49.463Z,99719.59
2023-04-25T04:18:17.544Z,99692.34
2023-04-25T04:20:45.467Z,99718.94
2023-04-25T04:23:14.462Z,99685.66
2023-04-25T04:25:42.990Z,99721.75
2023-04-25T04:28:12.103Z,99721.81
2023-04-25T04:30:42.294Z,99719.22
2023-04-25T04:33:10.620Z,99728.81
2023-04-25T04:35:38.530Z,99726.16
2023-04-25T04:38:06.616Z,99724.41
2023-04-25T04:40:34.764Z,99741.84
2023-04-25T04:43:03.154Z,99738.53
2023-04-25T04:45:31.207Z,99698.03
2023-04-25T04:48:00.672Z,99743.06
2023-04-25T04:50:28.753Z,99743.00
2023-04-25T04:52:56.682Z,99727.88
2023-04-25T04:55:24.646Z,99724.53
2023-04-25T04:57:52.479Z,99747.47
2023-04-25T05:00:21.860Z,99738.16
2023-04-25T05:02:50.198Z,99694.94
2023-04-25T05:05:19.647Z,99705.59
2023-04-25T05:07:47.545Z,99696.94
2023-04-25T05:10:15.642Z,99673.16
2023-04-25T05:12:43.471Z,99722.78
2023-04-25T05:15:14.469Z,99708.88
2023-04-25T05:17:42.459Z,99721.25
2023-04-25T05:20:11.340Z,99648.22
2023-04-25T05:22:42.664Z,99619.31
2023-04-25T05:25:11.599Z,99707.72
2023-04-25T05:27:39.561Z,99706.06
2023-04-25T05:30:09.065Z,99706.00
2023-04-25T05:32:37.126Z,99712.06
2023-04-25T05:35:07.832Z,99595.75
2023-04-25T05:37:35.909Z,99640.81
2023-04-25T05:40:07.929Z,99707.97
2023-04-25T05:42:35.849Z,99692.56
2023-04-25T05:45:03.939Z,99651.25
2023-04-25T05:47:31.913Z,99695.47
2023-04-25T05:49:59.893Z,99686.13
2023-04-25T05:52:27.936Z,99694.97
2023-04-25T05:54:56.153Z,99676.72
2023-04-25T05:57:27.121Z,99686.38
2023-04-25T05:59:55.569Z,99690.81
2023-04-25T06:02:23.881Z,99694.50
2023-04-25T06:04:52.585Z,99694.66
2023-04-25T06:07:22.098Z,99697.34
2023-04-25T06:09:50.417Z,99696.63
2023-04-25T06:12:18.290Z,99702.88
2023-04-25T06:14:47.749Z,99703.03
2023-04-25T06:17:15.691Z,99685.81
2023-04-25T06:19:43.568Z,99670.94
2023-04-25T06:22:11.593Z,99686.91
2023-04-25T06:24:39.554Z,99693.81
2023-04-25T06:27:07.458Z,99696.31
2023-04-25T06:29:35.476Z,99672.41
2023-04-25T06:32:05.170Z,99623.47
2023-04-25T06:34:33.107Z,99673.47
2023-04-25T06:37:01.008Z,99693.09
2023-04-25T06:39:28.942Z,99699.22
2023-04-25T06:41:56.787Z,99688.00
2023-04-25T06:44:27.185Z,99686.22
2023-04-25T06:46:55.188Z,99681.19
2023-04-25T06:49:24.432Z,99687.53
2023-04-25T06:51:52.344Z,99688.66
2023-04-25T06:54:20.312Z,99673.22
2023-04-25T06:56:48.192Z,99682.84
2023-04-25T06:59:16.111Z,99695.13
2023-04-25T07:01:43.996Z,99703.16
2023-04-25T07:04:12.031Z,99702.47
2023-04-25T07:06:43.638Z,99704.28
2023-04-25T07:09:12.078Z,99701.72
2023-04-25T07:11:39.971Z,99700.84
2023-04-25T07:14:07.996Z,99667.34
2023-04-25T07:16:35.902Z,99702.75
2023-04-25T07:19:03.852Z,99701.13
2023-04-25T07:21:33.186Z,99704.13
2023-04-25T07:24:02.501Z,99709.50
2023-04-25T07:26:30.363Z,99712.09
2023-04-25T07:28:58.382Z,99707.81
2023-04-25T07:31:26.919Z,99711.44
2023-04-25T07:33:54.931Z,99706.44
2023-04-25T07:36:22.810Z,99717.03
2023-04-25T07:38:51.048Z,99703.84
2023-04-25T07:41:20.474Z,99714.56
2023-04-25T07:43:48.441Z,99720.72
2023-04-25T07:46:16.401Z,99722.56
2023-04-25T07:48:44.283Z,99729.84
2023-04-25T07:51:12.277Z,99723.91
2023-04-25T07:53:40.584Z,99706.53
2023-04-25T07:56:09.182Z,99728.69
2023-04-25T07:58:38.571Z,99725.50
2023-04-25T08:01:06.590Z,99732.59
2023-04-25T08:03:34.837Z,99722.38
2023-04-25T08:06:05.768Z,99725.97
2023-04-25T08:08:36.237Z,99719.03
2023-04-25T08:11:04.092Z,99719.97
2023-04-25T08:13:31.917Z,99720.19
2023-04-25T08:16:01.299Z,99725.75
2023-04-25T08:18:29.234Z,99597.47
2023-04-25T08:20:57.049Z,99726.19
2023-04-25T08:23:25.093Z,99530.47
2023-04-25T08:25:53.197Z,99721.47
2023-04-25T08:28:21.005Z,99723.28
2023-04-25T08:30:49.181Z,99726.00
2023-04-25T08:33:18.484Z,99727.75
2023-04-25T08:35:46.950Z,99728.63
2023-04-25T08:38:15.229Z,99740.75
2023-04-25T08:40:45.402Z,99722.09
2023-04-25T08:43:16.341Z,99724.75
2023-04-25T08:45:44.575Z,99745.03
2023-04-25T08:48:14.687Z,99752.13
2023-04-25T08:50:49.030Z,99754.81
2023-04-25T08:53:20.411Z,99757.59
2023-04-25T08:55:49.032Z,99757.22
2023-04-25T08:58:17.740Z,99749.34
2023-04-25T09:00:45.802Z,99752.16
2023-04-25T09:03:14.347Z,99763.47
2023-04-25T09:05:47.107Z,99752.56
2023-04-25T09:08:15.243Z,99757.78
2023-04-25T09:10:43.253Z,99756.25
2023-04-25T09:13:13.914Z,99756.41
2023-04-25T09:15:53.168Z,99761.63
2023-04-25T09:18:30.865Z,99704.41
2023-04-25T09:21:13.159Z,99766.13
2023-04-25T09:23:43.608Z,99762.50
2023-04-25T09:26:11.617Z,99767.97
2023-04-25T09:28:39.919Z,99758.63
2023-04-25T09:31:07.833Z,99768.00
2023-04-25T09:33:37.387Z,99765.78
2023-04-25T09:36:09.296Z,99777.28
2023-04-25T09:38:43.535Z,99693.94
2023-04-25T09:41:11.822Z,99650.09
2023-04-25T09:43:40.425Z,99760.47
2023-04-25T09:46:12.276Z,99784.09
2023-04-25T09:48:40.603Z,99764.00
2023-04-25T09:51:12.134Z,99777.94
2023-04-25T09:53:42.012Z,99776.94
2023-04-25T09:56:11.611Z,99784.09
2023-04-25T09:58:43.805Z,99770.38
2023-04-25T10:01:13.986Z,99791.94
2023-04-25T10:03:42.847Z,99799.28
2023-04-25T10:06:16.880Z,99789.31
2023-04-25T10:08:46.381Z,99778.19
2023-04-25T10:11:16.864Z,99803.75
2023-04-25T10:13:45.886Z,99804.66
2023-04-25T10:16:13.941Z,99798.38
2023-04-25T10:18:41.774Z,99793.72
2023-04-25T10:21:09.839Z,99660.50
2023-04-25T10:23:39.858Z,99802.69
2023-04-25T10:26:13.857Z,99803.16
2023-04-25T10:28:57.490Z,99792.22
2023-04-25T10:31:25.646Z,99806.03
2023-04-25T10:33:53.845Z,99824.50
2023-04-25T10:36:23.557Z,99819.06
2023-04-25T10:38:53.763Z,99819.97
2023-04-25T10:41:23.730Z,99817.34
2023-04-25T10:44:02.064Z,99800.38
2023-04-25T10:46:32.029Z,99816.97
2023-04-25T10:49:01.553Z,99818.88
2023-04-25T10:51:39.959Z,99819.97
2023-04-25T10:54:14.074Z,99805.41
2023-04-25T10:56:45.562Z,99818.53
2023-04-25T10:59:15.149Z,99821.13
2023-04-25T11:01:45.269Z,99822.06
2023-04-25T11:04:24.025Z,99776.19
2023-04-25T11:07:08.056Z,99695.44
2023-04-25T11:09:40.394Z,99826.75
2023-04-25T11:12:12.760Z,99827.34
2023-04-25T11:17:14.534Z,99826.09
2023-04-25T11:19:42.661Z,99806.78
2023-04-25T11:22:12.580Z,99816.03
2023-04-25T11:24:41.963Z,99846.09
2023-04-25T11:27:10.952Z,99830.81
2023-04-25T11:29:38.844Z,99831.06
2023-04-25T11:32:07.238Z,99835.53
2023-04-25T11:34:35.891Z,99840.41
2023-04-25T11:37:05.037Z,99839.53
2023-04-25T11:39:33.021Z,99834.34
2023-04-25T11:42:03.831Z,99827.50
2023-04-25T11:44:36.366Z,99832.00
2023-04-25T11:47:04.278Z,99702.50
2023-04-25T11:49:33.390Z,99830.66
2023-04-25T11:52:01.345Z,99824.16
2023-04-25T11:54:29.275Z,99832.94
2023-04-25T11:56:57.619Z,99842.63
2023-04-25T11:59:28.162Z,99822.53
2023-04-25T12:01:56.272Z,99829.63
2023-04-25T12:04:25.438Z,99835.78
2023-04-25T12:06:55.414Z,99837.31
2023-04-25T12:09:30.368Z,99838.19
2023-04-25T12:12:00.189Z,99828.78
2023-04-25T12:14:30.968Z,99829.94
2023-04-25T12:17:00.437Z,99830.91
2023-04-25T12:19:33.990Z,99827.63
2023-04-25T12:22:04.146Z,99829.53
2023-04-25T12:24:39.093Z,99795.31
2023-04-25T12:27:09.433Z,99829.75
2023-04-25T12:29:49.103Z,99836.84
2023-04-25T12:32:17.670Z,99831.69
2023-04-25T12:34:46.153Z,99833.63
2023-04-25T12:37:14.247Z,99835.50
2023-04-25T12:39:42.215Z,99836.34
2023-04-25T12:42:13.280Z,99838.84
2023-04-25T12:44:42.943Z,99834.44
2023-04-25T12:47:11.336Z,99828.38
2023-04-25T12:49:39.520Z,99827.25
2023-04-25T12:52:07.402Z,99828.81
2023-04-25T12:54:35.193Z,99825.25
2023-04-25T12:57:04.178Z,99827.03
2023-04-25T12:59:32.244Z,99833.94
2023-04-25T13:02:01.535Z,99816.88
2023-04-25T13:04:29.608Z,99828.38
2023-04-25T13:06:57.594Z,99832.78
2023-04-25T13:09:25.592Z,99833.72
2023-04-25T13:11:56.131Z,99835.56
2023-04-25T13:14:26.172Z,99822.69
2023-04-25T13:16:55.559Z,99771.09
2023-04-25T13:19:24.863Z,99815.47
2023-04-25T13:21:52.737Z,99813.09
2023-04-25T13:24:20.778Z,99816.81
2023-04-25T13:26:48.758Z,99814.31
2023-04-25T13:29:16.593Z,99822.34
2023-04-25T13:31:44.684Z,99818.06
2023-04-25T13:34:13.574Z,99824.31
2023-04-25T13:36:42.989Z,99816.50
2023-04-25T13:39:12.562Z,99813.94
2023-04-25T13:41:40.460Z,99809.63
2023-04-25T13:44:08.459Z,99809.63
2023-04-25T13:49:12.918Z,99727.78
2023-04-25T13:51:43.616Z,99808.59
2023-04-25T13:54:11.809Z,99809.31
2023-04-25T13:56:39.663Z,99807.53
2023-04-25T13:59:07.591Z,99802.19
2023-04-25T14:01:36.744Z,99815.31
2023-04-25T14:04:05.609Z,99814.47
2023-04-25T14:06:34.112Z,99807.47
2023-04-25T14:09:05.547Z,99770.53
2023-04-25T14:11:33.467Z,99807.38
2023-04-25T14:14:01.337Z,99798.59
2023-04-25T14:16:29.587Z,99793.34
2023-04-25T14:18:58.889Z,99796.84
2023-04-25T14:21:28.029Z,99719.66
2023-04-25T14:23:55.982Z,99788.19
2023-04-25T14:26:25.447Z,99770.59
2023-04-25T14:28:53.746Z,99785.53
2023-04-25T14:31:22.241Z,99778.63
2023-04-25T14:33:50.264Z,99783.91
2023-04-25T14:36:18.504Z,99754.06
2023-04-25T14:38:46.741Z,99787.44
2023-04-25T14:41:14.796Z,99772.41
2023-04-25T14:43:44.045Z,99773.28
2023-04-25T14:46:13.150Z,99730.25
2023-04-25T14:48:41.316Z,99785.06
2023-04-25T14:51:09.738Z,99784.34
2023-04-25T14:53:37.835Z,99782.63
2023-04-25T14:56:06.198Z,99786.03
2023-04-25T14:58:34.328Z,99784.16
2023-04-25T15:01:03.790Z,99785.84
2023-04-25T15:03:31.786Z,99792.03
2023-04-25T15:05:59.898Z,99752.59
2023-04-25T15:08:28.082Z,99775.50
2023-04-25T15:10:55.935Z,99755.34
2023-04-25T15:13:23.936Z,99784.44
2023-04-25T15:18:48.530Z,99758.75
2023-04-25T15:21:16.496Z,99774.63
2023-04-25T15:23:44.380Z,99773.97
2023-04-25T15:26:12.922Z,99777.75
2023-04-25T15:28:40.843Z,99779.22
2023-04-25T15:31:09.204Z,99776.78
2023-04-25T15:33:37.188Z,99805.44
2023-04-25T15:36:07.510Z,99795.31
2023-04-25T15:38:35.318Z,99800.78
2023-04-25T15:41:04.796Z,99801.84
2023-04-25T15:43:35.758Z,99835.22
2023-04-25T15:46:03.633Z,99814.97
2023-04-25T15:48:32.641Z,99818.53
2023-04-25T15:51:01.063Z,99806.28
2023-04-25T15:53:30.300Z,99809.78
2023-04-25T15:55:58.255Z,99816.81
2023-04-25T15:58:27.471Z,99692.88
2023-04-25T16:00:56.720Z,99816.38
2023-04-25T16:03:24.834Z,99817.78
2023-04-25T16:05:52.906Z,99811.56
2023-04-25T16:08:20.831Z,99816.66
2023-04-25T16:10:50.316Z,99813.78
2023-04-25T16:13:18.221Z,99823.13
2023-04-25T16:15:46.086Z,99826.34
2023-04-25T16:18:14.034Z,99828.66
2023-04-25T16:20:42.156Z,99819.44
2023-04-25T16:23:10.638Z,99832.31
2023-04-25T16:25:38.575Z,99839.09
2023-04-25T16:28:07.953Z,99838.00
2023-04-25T16:30:36.039Z,99825.63
2023-04-25T16:33:04.005Z,99829.97
2023-04-25T16:35:32.563Z,99830.88
2023-04-25T16:38:01.098Z,99821.16
2023-04-25T16:40:29.138Z,99832.41
2023-04-25T16:42:57.160Z,99828.84
2023-04-25T16:45:26.858Z,99833.97
2023-04-25T16:47:54.843Z,99824.28
2023-04-25T16:50:22.832Z,99830.38
2023-04-25T16:52:51.333Z,99832.97
2023-04-25T16:55:19.639Z,99824.16
2023-04-25T16:57:47.600Z,99822.28
2023-04-25T17:00:16.854Z,99823.19
2023-04-25T17:02:46.235Z,99824.78
2023-04-25T17:05:14.260Z,99829.97
2023-04-25T17:07:42.111Z,99833.44
2023-04-25T17:10:11.133Z,99831.66
2023-04-25T17:12:38.970Z,99831.56
2023-04-25T17:15:08.494Z,99828.03
2023-04-25T17:17:36.545Z,99828.88
2023-04-25T17:20:07.346Z,99827.94
2023-04-25T17:22:35.756Z,99832.22
2023-04-25T17:25:03.953Z,99828.66
2023-04-25T17:27:32.210Z,99830.34
2023-04-25T17:30:00.256Z,99829.44
2023-04-25T17:32:28.634Z,99829.44
2023-04-25T17:34:56.841Z,99822.50
2023-04-25T17:37:28.534Z,99831.25
2023-04-25T17:39:56.419Z,99830.31
2023-04-25T17:42:24.780Z,99838.09
2023-04-25T17:44:54.817Z,99828.47
2023-04-25T17:47:22.967Z,99838.03
2023-04-25T17:49:51.490Z,99838.91
2023-04-25T17:52:19.391Z,99841.47
2023-04-25T17:54:49.582Z,99834.50
2023-04-25T17:57:17.726Z,99784.13
2023-04-25T17:59:45.864Z,99832.72
2023-04-25T18:02:13.737Z,99813.25
2023-04-25T18:04:41.670Z,99837.78
2023-04-25T18:07:09.732Z,99842.06
2023-04-25T18:09:37.568Z,99842.94
2023-04-25T18:12:08.189Z,99823.59
2023-04-25T18:14:36.805Z,99842.00
2023-04-25T18:17:07.351Z,99828.63
2023-04-25T18:19:35.352Z,99842.72
2023-04-25T18:22:03.435Z,99831.28
2023-04-25T18:24:32.193Z,99847.00
2023-04-25T18:27:01.397Z,99849.59
2023-04-25T18:29:33.963Z,99854.75
2023-04-25T18:32:04.443Z,99845.94
2023-04-25T18:34:32.964Z,99850.19
2023-04-25T18:37:00.871Z,99851.88
2023-04-25T18:39:28.834Z,99856.16
2023-04-25T18:42:03.201Z,99850.88
2023-04-25T18:44:40.188Z,99853.34
2023-04-25T18:47:09.193Z,99846.31
2023-04-25T18:49:37.537Z,99861.00
2023-04-25T18:52:05.603Z,99857.56
2023-04-25T18:54:33.461Z,99841.66
2023-04-25T18:57:01.461Z,99859.28
2023-04-25T18:59:29.419Z,99861.84
2023-04-25T19:02:00.644Z,99862.69
2023-04-25T19:04:29.213Z,99867.84
2023-04-25T19:06:57.259Z,99867.81
2023-04-25T19:09:25.720Z,99866.13
2023-04-25T19:11:54.223Z,99868.66
2023-04-25T19:14:22.388Z,99868.63
2023-04-25T19:16:50.315Z,99870.31
2023-04-25T19:19:19.692Z,99861.53
2023-04-25T19:21:47.655Z,99872.78
2023-04-25T19:24:15.553Z,99862.28
2023-04-25T19:26:43.530Z,99870.06
2023-04-25T19:29:14.499Z,99869.94
2023-04-25T19:31:44.067Z,99872.47
2023-04-25T19:34:13.066Z,99827.34
2023-04-25T19:36:44.161Z,99877.56
2023-04-25T19:39:12.176Z,99852.75
2023-04-25T19:41:40.321Z,99873.88
2023-04-25T19:44:09.465Z,99833.06
2023-04-25T19:46:38.344Z,99818.97
2023-04-25T19:49:07.871Z,99876.97
2023-04-25T19:51:37.269Z,99875.13
2023-04-25T19:54:06.982Z,99852.06
2023-04-25T19:56:35.075Z,99855.53
2023-04-25T19:59:03.007Z,99875.69
2023-04-25T20:01:31.050Z,99868.50
2023-04-25T20:03:58.988Z,99871.16
2023-04-25T20:06:27.395Z,99867.63
2023-04-25T20:08:55.659Z,99878.16
2023-04-25T20:11:28.689Z,99866.78
2023-04-25T20:13:57.080Z,99877.19
2023-04-25T20:16:25.118Z,99809.31
2023-04-25T20:18:53.842Z,99872.84
2023-04-25T20:21:23.575Z,99864.06
2023-04-25T20:23:51.395Z,99863.09
2023-04-25T20:28:48.852Z,99860.56
2023-04-25T20:31:16.967Z,99827.97
2023-04-25T20:33:45.014Z,99730.81
2023-04-25T20:36:15.213Z,99868.22
2023-04-25T20:38:43.137Z,99805.63
2023-04-25T20:41:11.683Z,99865.53
2023-04-25T20:43:40.374Z,99869.88
2023-04-25T20:46:10.401Z,99863.81
2023-04-25T20:48:38.422Z,99868.19
2023-04-25T20:51:07.292Z,99834.53
2023-04-25T20:53:35.144Z,99870.59
2023-04-25T20:56:04.538Z,99872.22
2023-04-25T20:58:32.398Z,99867.72
2023-04-25T21:01:01.400Z,99858.78
2023-04-25T21:03:31.412Z,99867.38
2023-04-25T21:05:59.546Z,99861.16
2023-04-25T21:08:27.424Z,99712.81
2023-04-25T21:10:55.379Z,99856.00
2023-04-25T21:13:23.209Z,99859.50
2023-04-25T21:15:51.710Z,99829.41
2023-04-25T21:18:19.825Z,99855.84
2023-04-25T21:20:49.037Z,99838.22
2023-04-25T21:23:16.990Z,99721.50
2023-04-25T21:25:45.195Z,99851.38
2023-04-25T21:28:13.179Z,99839.91
2023-04-25T21:30:42.560Z,99852.09
2023-04-25T21:33:10.603Z,99844.19
2023-04-25T21:35:38.764Z,99854.56
2023-04-25T21:38:08.179Z,99684.38
2023-04-25T21:40:36.728Z,99843.09
2023-04-25T21:43:04.623Z,99844.81
2023-04-25T21:45:32.555Z,99836.16
2023-04-25T21:48:00.672Z,99844.00
2023-04-25T21:50:28.943Z,99838.75
2023-04-25T21:52:58.933Z,99836.28
2023-04-25T21:55:28.984Z,99839.81
2023-04-25T21:57:56.788Z,99839.03
2023-04-25T22:00:27.588Z,99838.22
2023-04-25T22:02:56.708Z,99790.75
2023-04-25T22:05:26.698Z,99830.50
2023-04-25T22:07:57.053Z,99833.09
2023-04-25T22:10:26.342Z,99826.84
2023-04-25T22:12:56.067Z,99837.34
2023-04-25T22:15:24.495Z,99836.38
2023-04-25T22:17:55.499Z,99832.88
2023-04-25T22:20:26.318Z,99823.09
2023-04-25T22:22:55.745Z,99809.16
2023-04-25T22:25:24.050Z,99824.19
2023-04-25T22:27:52.303Z,99823.41
2023-04-25T22:30:21.929Z,99826.09
2023-04-25T22:32:49.910Z,99826.03
2023-04-25T22:35:17.802Z,99827.63
2023-04-25T22:37:45.974Z,99813.44
2023-04-25T22:40:14.428Z,99832.66
2023-04-25T22:42:43.591Z,99835.19
2023-04-25T22:45:12.606Z,99823.88
2023-04-25T22:47:41.976Z,99818.72
2023-04-25T22:50:13.595Z,99819.56
2023-04-25T22:52:42.692Z,99816.97
2023-04-25T22:55:12.338Z,99814.22
2023-04-25T22:57:40.507Z,99824.50
2023-04-25T23:00:16.551Z,99807.66
2023-04-25T23:02:47.505Z,99806.72
2023-04-25T23:05:16.428Z,99806.59
2023-04-25T23:07:45.146Z,99815.09
2023-04-25T23:10:14.257Z,99811.53
2023-04-25T23:12:42.844Z,99819.22
2023-04-25T23:15:12.602Z,99813.91
2023-04-25T23:17:40.888Z,99802.25
2023-04-25T23:20:12.161Z,99821.56
2023-04-25T23:22:40.636Z,99828.53
2023-04-25T23:25:10.201Z,99828.59
2023-04-25T23:27:38.538Z,99813.53
2023-04-25T23:30:09.016Z,99829.59
2023-04-25T23:32:37.387Z,99826.13
2023-04-25T23:35:06.192Z,99787.16
2023-04-25T23:37:37.141Z,99795.03
2023-04-25T23:40:08.582Z,99823.38
2023-04-25T23:42:36.798Z,99824.31
2023-04-25T23:45:05.394Z,99823.56
2023-04-25T23:47:33.527Z,99809.50
2023-04-25T23:50:01.693Z,99816.41
2023-04-25T23:52:29.678Z,99826.78
2023-04-25T23:54:59.106Z,99825.69
2023-04-25T23:57:26.969Z,99817.66
2023-04-25T23:59:55.134Z,99806.09
